createdAt,value
2023-11-19T00:00:59.403Z,5.2
2023-11-19T00:01:59.556Z,3.3
2023-11-19T00:03:00.077Z,5.8
2023-11-19T00:04:00.460Z,3.3
2023-11-19T00:05:01.261Z,3.7
2023-11-19T00:06:01.122Z,3.1
2023-11-19T00:07:01.665Z,5.2
2023-11-19T00:08:02.045Z,4
2023-11-19T00:09:02.524Z,4.8
2023-11-19T00:10:03.038Z,3.5
2023-11-19T00:11:03.246Z,4.6
2023-11-19T00:12:07.047Z,5.1
2023-11-19T00:13:04.926Z,4.1
2023-11-19T00:14:05.422Z,6.6
2023-11-19T00:15:05.849Z,4.4
2023-11-19T00:16:06.817Z,3
2023-11-19T00:17:05.863Z,4.7
2023-11-19T00:18:06.325Z,3.6
2023-11-19T00:19:06.666Z,4.1
2023-11-19T00:20:08.952Z,3.8
2023-11-19T00:21:08.020Z,4
2023-11-19T00:22:08.589Z,3.5
2023-11-19T00:23:08.988Z,5.7
2023-11-19T00:24:09.886Z,4.2
2023-11-19T00:25:10.343Z,3.5
2023-11-19T00:26:10.036Z,3.8
2023-11-19T00:27:10.225Z,3.5
2023-11-19T00:28:10.982Z,3.6
2023-11-19T00:29:11.267Z,6.7
2023-11-19T00:30:12.184Z,3.5
2023-11-19T00:31:12.119Z,3.7
2023-11-19T00:32:12.428Z,3.7
2023-11-19T00:33:12.838Z,3.9
2023-11-19T00:34:13.150Z,4.3
2023-11-19T00:35:13.451Z,4.6
2023-11-19T00:36:13.809Z,3.7
2023-11-19T00:37:14.837Z,5.1
2023-11-19T00:38:14.803Z,3.6
2023-11-19T00:39:15.110Z,4.5
2023-11-19T00:40:15.978Z,4.8
2023-11-19T00:41:16.596Z,4.5
2023-11-19T00:42:16.132Z,3.8
2023-11-19T00:43:16.721Z,5.5
2023-11-19T00:44:16.886Z,4.3
2023-11-19T00:45:17.418Z,4.3
2023-11-19T00:46:17.845Z,4.2
2023-11-19T00:47:18.367Z,5.2
2023-11-19T00:48:18.661Z,4.2
2023-11-19T00:49:18.909Z,5
2023-11-19T00:50:19.607Z,4.9
2023-11-19T00:51:19.698Z,9.3
2023-11-19T00:52:20.350Z,5.4
2023-11-19T00:53:20.735Z,7.2
2023-11-19T00:54:21.250Z,4.1
2023-11-19T00:55:21.270Z,4.1
2023-11-19T00:56:21.584Z,4.5
2023-11-19T00:57:22.814Z,5
2023-11-19T00:58:23.192Z,4
2023-11-19T00:59:23.447Z,5.1
2023-11-19T01:00:23.981Z,4.2
2023-11-19T01:01:25.195Z,3.8
2023-11-19T01:02:24.700Z,6.3
2023-11-19T01:03:25.167Z,5.5
2023-11-19T01:04:25.617Z,3.5
2023-11-19T01:05:26.402Z,4
2023-11-19T01:06:32.599Z,5.3
2023-11-19T01:07:29.863Z,5.4
2023-11-19T01:08:30.293Z,5.4
2023-11-19T01:09:31.089Z,3.7
2023-11-19T01:10:31.103Z,4.1
2023-11-19T01:11:31.407Z,4.8
2023-11-19T01:12:32.014Z,4.1
2023-11-19T01:13:32.426Z,6
2023-11-19T01:14:32.403Z,4.2
2023-11-19T01:15:33.606Z,5.9
2023-11-19T01:16:33.264Z,4.1
2023-11-19T01:17:33.636Z,4
2023-11-19T01:18:34.118Z,4.2
2023-11-19T01:19:34.657Z,4
2023-11-19T01:20:34.838Z,4.4
2023-11-19T01:21:35.326Z,3.9
2023-11-19T01:22:35.618Z,5
2023-11-19T01:23:36.829Z,4.4
2023-11-19T01:24:36.511Z,5
2023-11-19T01:25:36.689Z,3.9
2023-11-19T01:26:37.382Z,5.7
2023-11-19T01:27:37.563Z,5.2
2023-11-19T01:28:38.276Z,6.2
2023-11-19T01:29:38.354Z,3.9
2023-11-19T01:30:38.602Z,4.2
2023-11-19T01:31:39.019Z,3.5
2023-11-19T01:32:40.191Z,4
2023-11-19T01:33:40.292Z,5.1
2023-11-19T01:34:40.304Z,4.2
2023-11-19T01:35:40.693Z,4
2023-11-19T01:36:40.996Z,3.8
2023-11-19T01:37:41.241Z,4.9
2023-11-19T01:38:41.843Z,4.5
2023-11-19T01:39:45.218Z,4.2
2023-11-19T01:40:42.649Z,4.8
2023-11-19T01:41:42.868Z,4.4
2023-11-19T01:42:43.294Z,4.3
2023-11-19T01:43:43.693Z,3.9
2023-11-19T01:45:48.226Z,3.2
2023-11-19T01:46:49.172Z,5
2023-11-19T01:47:48.665Z,5.2
2023-11-19T01:48:49.061Z,3.9
2023-11-19T01:49:49.494Z,5
2023-11-19T01:51:54.625Z,4.2
2023-11-19T01:52:55.648Z,5.9
2023-11-19T01:53:56.253Z,4.6
2023-11-19T01:54:56.185Z,5.6
2023-11-19T01:55:56.327Z,5.2
2023-11-19T01:56:57.933Z,3.9
2023-11-19T01:57:59.363Z,4.7
2023-11-19T01:58:57.921Z,3.4
2023-11-19T01:59:57.313Z,4.9
2023-11-19T02:00:58.812Z,4.9
2023-11-19T02:02:01.731Z,4.9
2023-11-19T02:02:59.700Z,4.8
2023-11-19T02:04:00.268Z,5.6
2023-11-19T02:05:00.499Z,4.4
2023-11-19T02:06:01.458Z,4.9
2023-11-19T02:07:01.304Z,4.5
2023-11-19T02:08:01.364Z,5.6
2023-11-19T02:09:01.821Z,5
2023-11-19T02:10:02.165Z,4.7
2023-11-19T02:11:02.530Z,4.8
2023-11-19T02:12:02.940Z,5.7
2023-11-19T02:14:04.085Z,5
2023-11-19T02:15:07.763Z,5.2
2023-11-19T02:16:05.787Z,5.6
2023-11-19T02:17:06.362Z,4.9
2023-11-19T02:19:10.979Z,4
2023-11-19T02:20:11.707Z,4.5
2023-11-19T02:21:11.507Z,6.3
2023-11-19T02:22:12.026Z,3.7
2023-11-19T02:23:14.579Z,4.6
2023-11-19T02:24:15.297Z,3.7
2023-11-19T02:25:21.014Z,5.3
2023-11-19T02:28:18.617Z,4.2
2023-11-19T02:29:18.823Z,4
2023-11-19T02:30:18.916Z,4.8
2023-11-19T02:31:19.346Z,6.1
2023-11-19T02:32:20.386Z,3.7
2023-11-19T02:33:20.275Z,3.6
2023-11-19T02:34:20.303Z,5.3
2023-11-19T02:35:20.694Z,3.9
2023-11-19T02:36:21.020Z,4.8
2023-11-19T02:37:21.181Z,5.5
2023-11-19T02:38:21.739Z,4.8
2023-11-19T02:39:22.049Z,6.8
2023-11-19T02:40:22.191Z,4.3
2023-11-19T02:41:22.591Z,4.5
2023-11-19T02:42:22.896Z,4.1
2023-11-19T02:43:23.320Z,5.8
2023-11-19T02:44:23.929Z,4
2023-11-19T02:45:24.660Z,5.2
2023-11-19T02:46:24.401Z,5.3
2023-11-19T02:47:24.913Z,5.4
2023-11-19T02:48:25.085Z,4.6
2023-11-19T02:49:25.508Z,6.1
2023-11-19T02:50:26.840Z,4.4
2023-11-19T02:51:26.207Z,4.8
2023-11-19T02:52:26.645Z,4.6
2023-11-19T02:53:26.795Z,4.6
2023-11-19T02:54:27.279Z,5
2023-11-19T02:55:27.707Z,7.3
2023-11-19T02:56:28.016Z,5.1
2023-11-19T02:57:32.423Z,4.9
2023-11-19T02:58:29.890Z,5.7
2023-11-19T02:59:30.281Z,6.3
2023-11-19T03:00:30.598Z,3.8
2023-11-19T03:01:31.967Z,4.8
2023-11-19T03:02:31.354Z,4.7
2023-11-19T03:03:31.581Z,4.4
2023-11-19T03:04:31.875Z,5.7
2023-11-19T03:05:32.374Z,4
2023-11-19T03:06:32.783Z,4.3
2023-11-19T03:07:32.682Z,4.8
2023-11-19T03:08:33.972Z,4.6
2023-11-19T03:09:33.523Z,3.5
2023-11-19T03:10:34.098Z,4.8
2023-11-19T03:11:34.343Z,5.4
2023-11-19T03:12:34.452Z,4.8
2023-11-19T03:13:34.979Z,4.2
2023-11-19T03:14:35.922Z,8.2
2023-11-19T03:15:35.817Z,3.8
2023-11-19T03:16:36.111Z,4.6
2023-11-19T03:17:45.728Z,4.4
2023-11-19T03:18:38.183Z,7.4
2023-11-19T03:19:38.563Z,6.8
2023-11-19T03:20:38.939Z,4.5
2023-11-19T03:21:39.185Z,5.1
2023-11-19T03:22:39.452Z,6.2
2023-11-19T03:23:39.792Z,4.3
2023-11-19T03:24:40.277Z,4.4
2023-11-19T03:25:40.784Z,5.4
2023-11-19T03:26:41.061Z,4.6
2023-11-19T03:27:41.516Z,5.1
2023-11-19T03:28:41.652Z,5.9
2023-11-19T03:29:42.041Z,4.7
2023-11-19T03:30:42.266Z,6.6
2023-11-19T03:31:45.695Z,4.1
2023-11-19T03:32:43.211Z,6.9
2023-11-19T03:33:43.628Z,4.5
2023-11-19T03:34:43.905Z,4.3
2023-11-19T03:35:44.336Z,6
2023-11-19T03:36:44.443Z,7.5
2023-11-19T03:37:44.866Z,5
2023-11-19T03:38:45.076Z,6.2
2023-11-19T03:39:45.530Z,5.3
2023-11-19T03:40:45.795Z,4.6
2023-11-19T03:41:48.885Z,4.3
2023-11-19T03:42:48.984Z,4.6
2023-11-19T03:43:46.690Z,5.2
2023-11-19T03:44:47.134Z,6.7
2023-11-19T03:45:47.830Z,4.1
2023-11-19T03:46:48.426Z,4.6
2023-11-19T03:47:48.015Z,4.1
2023-11-19T03:48:49.249Z,5.4
2023-11-19T03:49:52.520Z,4.8
2023-11-19T03:50:49.975Z,4.2
2023-11-19T03:51:50.129Z,6.8
2023-11-19T03:52:50.881Z,5.4
2023-11-19T03:53:50.867Z,5.6
2023-11-19T03:54:51.388Z,4.6
2023-11-19T03:55:51.748Z,4.2
2023-11-19T03:56:52.061Z,4.2
2023-11-19T03:57:52.583Z,4.5
2023-11-19T03:58:52.882Z,5
2023-11-19T03:59:53.236Z,4.6
2023-11-19T04:00:53.543Z,5.5
2023-11-19T04:01:54.003Z,4.6
2023-11-19T04:02:54.166Z,3.8
2023-11-19T04:03:54.633Z,4.3
2023-11-19T04:04:55.451Z,5
2023-11-19T04:05:55.196Z,8.4
2023-11-19T04:06:56.337Z,4.6
2023-11-19T04:07:55.902Z,5.8
2023-11-19T04:08:56.239Z,6.3
2023-11-19T04:09:56.557Z,5.2
2023-11-19T04:10:57.065Z,3.7
2023-11-19T04:11:58.403Z,5.4
2023-11-19T04:12:57.830Z,4.4
2023-11-19T04:13:58.291Z,5.2
2023-11-19T04:15:02.256Z,5.4
2023-11-19T04:16:00.428Z,7.7
2023-11-19T04:17:00.334Z,4.1
2023-11-19T04:18:00.725Z,4.9
2023-11-19T04:19:01.164Z,5.3
2023-11-19T04:20:01.572Z,5.1
2023-11-19T04:21:01.939Z,8.3
2023-11-19T04:22:02.400Z,6
2023-11-19T04:23:02.720Z,4.5
2023-11-19T04:24:03.086Z,5.3
2023-11-19T04:25:04.258Z,4.8
2023-11-19T04:27:05.949Z,5.4
2023-11-19T04:28:05.973Z,5.9
2023-11-19T04:29:06.398Z,4.8
2023-11-19T04:30:07.856Z,4.5
2023-11-19T04:31:07.805Z,5
2023-11-19T04:32:07.760Z,5.6
2023-11-19T04:33:07.858Z,5.5
2023-11-19T04:34:08.404Z,7.6
2023-11-19T04:35:09.566Z,5.3
2023-11-19T04:36:10.142Z,7.9
2023-11-19T04:38:09.805Z,6.6
2023-11-19T04:39:10.382Z,5.6
2023-11-19T04:40:11.627Z,4.8
2023-11-19T04:41:10.985Z,7.4
2023-11-19T04:42:11.305Z,6.5
2023-11-19T04:43:11.762Z,5.5
2023-11-19T04:44:12.181Z,5.4
2023-11-19T04:45:12.972Z,4.8
2023-11-19T04:46:13.260Z,4
2023-11-19T04:47:13.671Z,3.9
2023-11-19T04:48:13.800Z,5.7
2023-11-19T04:49:15.071Z,5.3
2023-11-19T04:50:14.765Z,4.4
2023-11-19T04:51:15.164Z,6.1
2023-11-19T04:52:15.538Z,5.8
2023-11-19T04:53:15.976Z,5.1
2023-11-19T04:54:16.190Z,5.5
2023-11-19T04:55:17.015Z,5.7
2023-11-19T04:56:16.914Z,5.3
2023-11-19T04:57:18.267Z,5.4
2023-11-19T04:58:17.801Z,4.7
2023-11-19T04:59:18.015Z,5.2
2023-11-19T05:00:20.132Z,5
2023-11-19T05:01:19.036Z,5
2023-11-19T05:02:19.326Z,5.9
2023-11-19T05:03:19.875Z,10.8
2023-11-19T05:04:20.648Z,9.9
2023-11-19T05:05:20.905Z,6.4
2023-11-19T05:06:21.002Z,7
2023-11-19T05:07:21.658Z,4.3
2023-11-19T05:08:21.743Z,6.4
2023-11-19T05:09:22.297Z,4.6
2023-11-19T05:10:22.625Z,6.1
2023-11-19T05:11:23.423Z,3.8
2023-11-19T05:12:23.287Z,4.7
2023-11-19T05:13:23.777Z,4.9
2023-11-19T05:14:23.997Z,5.4
2023-11-19T05:15:24.462Z,4.7
2023-11-19T05:16:25.170Z,6.8
2023-11-19T05:17:25.398Z,5.7
2023-11-19T05:18:25.366Z,4.6
2023-11-19T05:19:25.921Z,4.9
2023-11-19T05:20:26.875Z,5.2
2023-11-19T05:21:27.432Z,6.8
2023-11-19T05:22:27.556Z,6.1
2023-11-19T05:23:27.907Z,5.3
2023-11-19T05:24:28.296Z,5.2
2023-11-19T05:25:29.058Z,6.6
2023-11-19T05:26:29.210Z,5.6
2023-11-19T05:27:29.422Z,7.7
2023-11-19T05:28:29.774Z,4.9
2023-11-19T05:29:29.946Z,6.2
2023-11-19T05:30:30.357Z,5.7
2023-11-19T05:31:32.312Z,6.3
2023-11-19T05:32:31.236Z,5.8
2023-11-19T05:33:31.654Z,5.2
2023-11-19T05:34:32.172Z,6.5
2023-11-19T05:35:32.241Z,5.4
2023-11-19T05:36:32.800Z,4.5
2023-11-19T05:37:33.098Z,6.4
2023-11-19T05:38:33.603Z,5.1
2023-11-19T05:39:34.316Z,4.5
2023-11-19T05:40:34.490Z,4.8
2023-11-19T05:41:34.831Z,4.3
2023-11-19T05:42:35.049Z,4.8
2023-11-19T05:43:35.719Z,6.9
2023-11-19T05:44:38.309Z,5.5
2023-11-19T05:45:37.120Z,5
2023-11-19T05:46:37.765Z,5.3
2023-11-19T05:47:38.029Z,7.5
2023-11-19T05:48:38.285Z,5.3
2023-11-19T05:49:38.887Z,5.9
2023-11-19T05:50:39.342Z,5.4
2023-11-19T05:51:40.275Z,4.5
2023-11-19T05:52:40.139Z,4.1
2023-11-19T05:53:40.454Z,5.7
2023-11-19T05:54:40.866Z,5.8
2023-11-19T05:55:41.393Z,5.7
2023-11-19T05:56:41.720Z,4.8
2023-11-19T05:58:42.517Z,5.8
2023-11-19T05:59:42.633Z,5.1
2023-11-19T06:00:43.191Z,5.3
2023-11-19T06:01:43.582Z,5.5
2023-11-19T06:02:43.810Z,5.3
2023-11-19T06:03:44.115Z,5.2
2023-11-19T06:04:44.538Z,4.1
2023-11-19T06:05:48.620Z,4.6
2023-11-19T06:06:46.149Z,4.2
2023-11-19T06:07:46.586Z,5.1
2023-11-19T06:08:46.839Z,5.2
2023-11-19T06:09:47.319Z,3.9
2023-11-19T06:10:48.063Z,7.6
2023-11-19T06:11:48.086Z,11.9
2023-11-19T06:12:48.386Z,6.6
2023-11-19T06:13:49.147Z,5.4
2023-11-19T06:14:49.297Z,5.8
2023-11-19T06:15:49.711Z,4.4
2023-11-19T06:16:50.336Z,4.9
2023-11-19T06:17:50.589Z,5
2023-11-19T06:18:50.990Z,5.8
2023-11-19T06:19:51.327Z,5.5
2023-11-19T06:20:51.518Z,4.9
2023-11-19T06:21:52.191Z,5.3
2023-11-19T06:22:52.519Z,6.1
2023-11-19T06:23:52.718Z,5.1
2023-11-19T06:24:53.467Z,5.4
2023-11-19T06:25:53.682Z,4.8
2023-11-19T06:26:53.989Z,4.8
2023-11-19T06:27:54.284Z,5.8
2023-11-19T06:28:54.610Z,5.5
2023-11-19T06:29:55.024Z,6.6
2023-11-19T06:30:55.429Z,5.4
2023-11-19T06:31:55.800Z,5
2023-11-19T06:32:56.170Z,5
2023-11-19T06:33:56.698Z,5.4
2023-11-19T06:34:57.399Z,5.8
2023-11-19T06:35:57.532Z,5.2
2023-11-19T06:36:58.056Z,6
2023-11-19T06:37:58.348Z,5.2
2023-11-19T06:38:58.766Z,5.2
2023-11-19T06:39:59.296Z,6.2
2023-11-19T06:40:59.591Z,5.9
2023-11-19T06:42:00.045Z,4.6
2023-11-19T06:43:00.994Z,6.2
2023-11-19T06:44:00.990Z,7.5
2023-11-19T06:45:01.204Z,5.3
2023-11-19T06:46:01.691Z,5.4
2023-11-19T06:47:02.171Z,5.9
2023-11-19T06:48:02.948Z,7.9
2023-11-19T06:49:02.858Z,6.3
2023-11-19T06:50:03.565Z,9.7
2023-11-19T06:51:06.464Z,9.8
2023-11-19T06:52:04.712Z,6.2
2023-11-19T06:53:04.591Z,6.5
2023-11-19T06:54:05.018Z,5.6
2023-11-19T06:55:09.340Z,4.9
2023-11-19T06:56:18.438Z,6.1
2023-11-19T06:57:10.866Z,5.3
2023-11-19T06:58:11.077Z,6.7
2023-11-19T06:59:11.455Z,6.7
2023-11-19T07:00:13.001Z,6.2
2023-11-19T07:01:12.266Z,6.4
2023-11-19T07:02:12.804Z,6.3
2023-11-19T07:03:12.895Z,7.2
2023-11-19T07:04:13.496Z,5.8
2023-11-19T07:05:13.593Z,8.6
2023-11-19T07:06:14.336Z,5.4
2023-11-19T07:07:14.609Z,6.5
2023-11-19T07:08:15.576Z,7.1
2023-11-19T07:09:15.288Z,5.9
2023-11-19T07:10:15.678Z,5.7
2023-11-19T07:11:16.817Z,8
2023-11-19T07:12:16.444Z,4.8
2023-11-19T07:13:16.930Z,4.5
2023-11-19T07:14:17.415Z,5.2
2023-11-19T07:15:18.042Z,4
2023-11-19T07:16:18.075Z,6.4
2023-11-19T07:17:19.022Z,5.2
2023-11-19T07:18:18.938Z,5.9
2023-11-19T07:19:19.405Z,5.7
2023-11-19T07:20:19.748Z,5.5
2023-11-19T07:21:19.938Z,4.1
2023-11-19T07:22:20.451Z,5.4
2023-11-19T07:23:20.857Z,4.6
2023-11-19T07:24:21.905Z,6.7
2023-11-19T07:25:21.425Z,6.3
2023-11-19T07:26:22.355Z,7.6
2023-11-19T07:27:22.337Z,6.3
2023-11-19T07:28:22.750Z,7.8
2023-11-19T07:30:23.775Z,8.5
2023-11-19T07:31:24.727Z,5.8
2023-11-19T07:32:24.360Z,8.3
2023-11-19T07:33:24.783Z,6.4
2023-11-19T07:34:26.131Z,5.7
2023-11-19T07:35:25.386Z,23.6
2023-11-19T07:36:25.660Z,9
2023-11-19T07:37:26.051Z,7.8
2023-11-19T07:38:26.359Z,7.8
2023-11-19T07:39:26.704Z,6.5
2023-11-19T07:40:28.422Z,5.6
2023-11-19T07:41:27.409Z,6.6
2023-11-19T07:42:27.695Z,7.1
2023-11-19T07:43:28.375Z,6.5
2023-11-19T07:44:28.424Z,6.5
2023-11-19T07:45:28.809Z,6.2
2023-11-19T07:46:29.142Z,6.1
2023-11-19T07:47:29.503Z,6.6
2023-11-19T07:48:29.751Z,5.3
2023-11-19T07:49:30.069Z,4.7
2023-11-19T07:50:30.519Z,6
2023-11-19T07:51:30.879Z,5.1
2023-11-19T07:52:31.159Z,5.1
2023-11-19T07:53:31.539Z,7.8
2023-11-19T07:54:31.930Z,16.5
2023-11-19T07:55:33.542Z,9.1
2023-11-19T07:56:34.548Z,6.2
2023-11-19T07:57:32.993Z,6.9
2023-11-19T07:58:33.416Z,5.7
2023-11-19T07:59:33.620Z,4.7
2023-11-19T08:00:33.848Z,4.7
2023-11-19T08:01:34.359Z,5.6
2023-11-19T08:02:35.009Z,5.3
2023-11-19T08:03:35.359Z,4.8
2023-11-19T08:04:35.479Z,5.8
2023-11-19T08:05:35.632Z,5.3
2023-11-19T08:06:36.435Z,5.5
2023-11-19T08:07:36.280Z,5.4
2023-11-19T08:08:36.953Z,5.5
2023-11-19T08:09:37.046Z,5.4
2023-11-19T08:10:37.273Z,5.3
2023-11-19T08:11:37.552Z,5.9
2023-11-19T08:12:38.321Z,4.8
2023-11-19T08:13:38.157Z,5.4
2023-11-19T08:14:38.739Z,5
2023-11-19T08:15:38.829Z,5.6
2023-11-19T08:16:41.074Z,7.2
2023-11-19T08:17:40.499Z,5.3
2023-11-19T08:18:42.347Z,6.1
2023-11-19T08:19:40.400Z,4.8
2023-11-19T08:20:40.942Z,4.5
2023-11-19T08:21:40.921Z,5.7
2023-11-19T08:22:41.272Z,6.3
2023-11-19T08:23:41.575Z,7
2023-11-19T08:24:41.972Z,7.2
2023-11-19T08:25:42.179Z,6.4
2023-11-19T08:26:42.510Z,5.7
2023-11-19T08:27:42.913Z,4.9
2023-11-19T08:28:43.071Z,5.6
2023-11-19T08:29:43.654Z,5.8
2023-11-19T08:30:43.781Z,4.7
2023-11-19T08:31:44.279Z,4.4
2023-11-19T08:32:44.613Z,5.8
2023-11-19T08:33:44.779Z,4.8
2023-11-19T08:34:45.061Z,7.5
2023-11-19T08:35:45.393Z,5.1
2023-11-19T08:36:45.676Z,6.8
2023-11-19T08:37:46.661Z,5.3
2023-11-19T08:38:46.498Z,5.7
2023-11-19T08:39:46.672Z,4.8
2023-11-19T08:40:47.092Z,6.2
2023-11-19T08:41:47.396Z,5.3
2023-11-19T08:42:47.774Z,5.2
2023-11-19T08:43:48.158Z,6
2023-11-19T08:44:51.559Z,5
2023-11-19T08:45:49.189Z,5.7
2023-11-19T08:46:50.308Z,6.5
2023-11-19T08:47:49.736Z,7
2023-11-19T08:48:49.895Z,6.6
2023-11-19T08:50:53.737Z,6.4
2023-11-19T08:51:54.193Z,7.2
2023-11-19T08:52:54.448Z,6.2
2023-11-19T08:53:54.741Z,4.9
2023-11-19T08:54:55.104Z,5.6
2023-11-19T08:55:55.495Z,4.7
2023-11-19T08:56:55.742Z,5.2
2023-11-19T08:57:56.128Z,5.6
2023-11-19T08:58:56.477Z,5.1
2023-11-19T08:59:56.689Z,5.2
2023-11-19T09:00:57.309Z,6.5
2023-11-19T09:01:57.284Z,5.7
2023-11-19T09:02:57.887Z,6.1
2023-11-19T09:03:58.107Z,6
2023-11-19T09:04:58.527Z,5.1
2023-11-19T09:05:58.626Z,5.4
2023-11-19T09:06:59.552Z,6
2023-11-19T09:07:59.359Z,7
2023-11-19T09:09:00.215Z,7.8
2023-11-19T09:09:59.936Z,5.7
2023-11-19T09:11:00.392Z,7.1
2023-11-19T09:12:00.713Z,6.1
2023-11-19T09:13:01.013Z,5.9
2023-11-19T09:14:01.291Z,6.8
2023-11-19T09:15:01.851Z,7.4
2023-11-19T09:16:02.076Z,5.2
2023-11-19T09:17:02.128Z,7
2023-11-19T09:18:03.052Z,5.6
2023-11-19T09:19:04.433Z,6
2023-11-19T09:20:03.323Z,5.3
2023-11-19T09:21:03.973Z,6.3
2023-11-19T09:22:04.047Z,6.3
2023-11-19T09:23:04.607Z,8.9
2023-11-19T09:24:05.189Z,5.3
2023-11-19T09:25:05.635Z,5.7
2023-11-19T09:26:06.031Z,5.5
2023-11-19T09:27:06.079Z,6.4
2023-11-19T09:28:05.928Z,8.1
2023-11-19T09:29:06.203Z,5.8
2023-11-19T09:30:07.718Z,6.2
2023-11-19T09:31:19.247Z,4.6
2023-11-19T09:32:11.673Z,7.7
2023-11-19T09:33:12.109Z,5.2
2023-11-19T09:34:12.326Z,4.7
2023-11-19T09:35:12.565Z,4.7
2023-11-19T09:36:16.176Z,4.7
2023-11-19T09:38:13.965Z,6.2
2023-11-19T09:39:14.607Z,5.4
2023-11-19T09:40:14.813Z,4.8
2023-11-19T09:41:15.166Z,4.9
2023-11-19T09:42:15.446Z,7.9
2023-11-19T09:43:16.790Z,6.2
2023-11-19T09:44:16.122Z,5.1
2023-11-19T09:45:18.117Z,4.7
2023-11-19T09:46:17.776Z,5.9
2023-11-19T09:47:18.732Z,4.7
2023-11-19T09:48:20.958Z,5.1
2023-11-19T09:49:36.102Z,6
2023-11-19T09:50:20.420Z,4.8
2023-11-19T09:51:19.081Z,5.4
2023-11-19T09:52:19.606Z,6.9
2023-11-19T09:53:20.054Z,10.5
2023-11-19T09:54:20.231Z,7.9
2023-11-19T09:55:20.337Z,6
2023-11-19T09:56:21.110Z,5.6
2023-11-19T09:57:21.218Z,5.7
2023-11-19T09:58:21.588Z,8.7
2023-11-19T09:59:22.170Z,5.8
2023-11-19T10:00:22.790Z,5.9
2023-11-19T10:01:26.600Z,5.1
2023-11-19T10:02:30.658Z,6.7
2023-11-19T10:04:31.600Z,7.1
2023-11-19T10:05:30.606Z,6.5
2023-11-19T10:06:30.961Z,5.3
2023-11-19T10:07:31.478Z,6.3
2023-11-19T10:08:31.722Z,6.8
2023-11-19T10:09:32.308Z,9.7
2023-11-19T10:10:32.111Z,7
2023-11-19T10:11:32.645Z,7.3
2023-11-19T10:12:32.806Z,5.3
2023-11-19T10:13:35.973Z,8
2023-11-19T10:14:36.175Z,4.5
2023-11-19T10:15:37.620Z,5.7
2023-11-19T10:16:36.183Z,5.8
2023-11-19T10:17:35.684Z,5.7
2023-11-19T10:18:35.717Z,5.5
2023-11-19T10:19:36.473Z,4.9
2023-11-19T10:21:39.064Z,8.8
2023-11-19T10:22:39.363Z,5.2
2023-11-19T10:24:46.658Z,7.2
2023-11-19T10:25:46.761Z,5.7
2023-11-19T10:26:47.089Z,5.8
2023-11-19T10:27:47.479Z,6.1
2023-11-19T10:28:50.866Z,4.7
2023-11-19T10:29:49.001Z,6.1
2023-11-19T10:30:49.460Z,5
2023-11-19T10:31:57.621Z,6.9
2023-11-19T10:33:50.267Z,5.1
2023-11-19T10:34:50.652Z,5.3
2023-11-19T10:36:52.353Z,5.9
2023-11-19T10:37:52.778Z,5.6
2023-11-19T10:38:57.594Z,5.6
2023-11-19T10:39:55.911Z,5.6
2023-11-19T10:40:55.897Z,5.6
2023-11-19T10:41:59.116Z,5.6
2023-11-19T10:43:04.094Z,5.6
2023-11-19T10:44:01.333Z,5.1
2023-11-19T10:45:01.940Z,5.5
2023-11-19T10:47:09.324Z,5.2
2023-11-19T10:48:08.421Z,6.5
2023-11-19T10:49:08.416Z,6.4
2023-11-19T10:50:08.538Z,4.9
2023-11-19T10:51:08.673Z,6.9
2023-11-19T10:52:10.277Z,5.5
2023-11-19T10:53:11.152Z,7.6
2023-11-19T10:54:10.310Z,7.4
2023-11-19T10:55:12.343Z,8.9
2023-11-19T10:56:14.428Z,11.1
2023-11-19T10:57:17.834Z,13.1
2023-11-19T10:58:17.378Z,29
2023-11-19T11:00:20.679Z,23.6
2023-11-19T11:01:20.881Z,27
2023-11-19T11:02:23.048Z,38.6
2023-11-19T11:03:21.817Z,15.2
2023-11-19T11:04:25.224Z,8.2
2023-11-19T11:05:25.445Z,8.3
2023-11-19T11:06:23.624Z,6.8
2023-11-19T11:07:29.963Z,5.5
2023-11-19T11:08:24.116Z,6.8
2023-11-19T11:09:24.730Z,8.8
2023-11-19T11:10:27.419Z,9
2023-11-19T11:11:27.312Z,11.6
2023-11-19T11:12:26.427Z,19
2023-11-19T11:13:27.303Z,12.9
2023-11-19T11:14:28.032Z,26
2023-11-19T11:15:30.022Z,10.5
2023-11-19T11:16:28.456Z,10.5
2023-11-19T11:17:32.620Z,7.6
2023-11-19T11:18:30.152Z,7
2023-11-19T11:19:30.752Z,6
2023-11-19T11:20:35.601Z,7.4
2023-11-19T11:21:33.821Z,7.5
2023-11-19T11:38:23.388Z,6.8
2023-11-19T11:39:23.760Z,7.4
2023-11-19T11:40:21.220Z,6.2
2023-11-19T11:41:24.321Z,5.1
2023-11-19T11:48:36.374Z,5.2
2023-11-19T11:49:36.475Z,4.9
2023-11-19T11:50:48.135Z,9
2023-11-19T11:53:48.365Z,6.4
2023-11-19T11:54:46.064Z,4.5
2023-11-19T11:57:48.934Z,10.4
2023-11-19T11:58:48.539Z,7.7
2023-11-19T11:59:50.249Z,5.2
2023-11-19T12:00:50.147Z,6.9
2023-11-19T12:02:55.481Z,16
2023-11-19T12:03:57.091Z,11.5
2023-11-19T12:04:54.909Z,14.6
2023-11-19T12:05:55.020Z,8.3
2023-11-19T12:08:05.809Z,41.6
2023-11-19T12:09:03.890Z,21.4
2023-11-19T12:10:10.726Z,28.8
2023-11-19T12:11:08.351Z,21.7
2023-11-19T12:13:11.028Z,22.9
2023-11-19T12:14:11.293Z,11.2
2023-11-19T12:15:11.886Z,9.4
2023-11-19T12:16:12.467Z,7.4
2023-11-19T12:18:20.518Z,4.8
2023-11-19T12:19:19.410Z,6.9
2023-11-19T12:20:34.532Z,6.8
2023-11-19T12:21:34.326Z,6
2023-11-19T12:22:27.062Z,5.3
2023-11-19T12:23:29.630Z,7.8
2023-11-19T12:24:28.306Z,5.7
2023-11-19T12:25:28.216Z,4.4
2023-11-19T12:26:40.917Z,4.4
2023-11-19T12:27:29.477Z,6.5
2023-11-19T12:28:28.440Z,5
2023-11-19T12:29:29.063Z,4.8
2023-11-19T12:30:29.093Z,6.1
2023-11-19T12:31:29.679Z,5
2023-11-19T12:33:32.324Z,7
2023-11-19T12:34:30.581Z,5.4
2023-11-19T12:35:30.941Z,5.4
2023-11-19T12:36:31.372Z,6.6
2023-11-19T12:37:31.666Z,4.3
2023-11-19T12:38:31.877Z,5.8
2023-11-19T12:39:32.684Z,5.9
2023-11-19T12:40:32.852Z,6.5
2023-11-19T12:41:32.936Z,5.3
2023-11-19T12:42:39.014Z,6.7
2023-11-19T12:43:51.250Z,6
2023-11-19T12:44:39.138Z,7.1
2023-11-19T12:45:39.313Z,15.1
2023-11-19T12:46:39.836Z,7.8
2023-11-19T12:47:41.097Z,7.9
2023-11-19T12:48:42.996Z,5.7
2023-11-19T12:49:40.747Z,4.5
2023-11-19T12:50:54.185Z,7.7
2023-11-19T12:51:41.725Z,5.6
2023-11-19T12:52:42.110Z,19.2
2023-11-19T12:53:54.233Z,6
2023-11-19T12:54:46.699Z,10.3
2023-11-19T12:55:47.154Z,8
2023-11-19T12:56:54.278Z,6.5
2023-11-19T12:57:51.676Z,6.4
2023-11-19T12:58:52.097Z,7.6
2023-11-19T12:59:58.444Z,5.9
2023-11-19T13:01:01.160Z,8.2
2023-11-19T13:01:59.409Z,6.7
2023-11-19T13:03:00.131Z,5.4
2023-11-19T13:03:59.506Z,5.6
2023-11-19T13:05:00.007Z,6.7
2023-11-19T13:06:04.544Z,7.7
2023-11-19T13:07:06.148Z,10
2023-11-19T13:08:09.503Z,9.1
2023-11-19T13:09:06.888Z,7.9
2023-11-19T13:10:08.054Z,7.8
2023-11-19T13:11:08.233Z,12.7
2023-11-19T13:12:16.023Z,9.7
2023-11-19T13:13:09.879Z,9.8
2023-11-19T13:14:08.873Z,8.3
2023-11-19T13:16:10.703Z,7.4
2023-11-19T13:17:14.680Z,5.7
2023-11-19T13:18:12.726Z,6.5
2023-11-19T13:19:12.491Z,7.4
2023-11-19T13:20:13.009Z,5.6
2023-11-19T13:21:13.116Z,6.7
2023-11-19T13:22:13.434Z,10.6
2023-11-19T13:23:13.952Z,16.8
2023-11-19T13:24:14.752Z,53.2
2023-11-19T13:25:14.490Z,31.5
2023-11-19T13:26:15.374Z,13.7
2023-11-19T13:27:15.299Z,6.6
2023-11-19T13:28:15.478Z,6.3
2023-11-19T13:29:15.831Z,10.7
2023-11-19T13:31:18.146Z,58.8
2023-11-19T13:32:18.262Z,42.2
2023-11-19T13:33:18.680Z,8.1
2023-11-19T13:34:18.898Z,5.6
2023-11-19T13:35:20.143Z,14.8
2023-11-19T13:36:19.631Z,8.8
2023-11-19T13:37:19.977Z,9.7
2023-11-19T13:38:20.306Z,12.8
2023-11-19T13:39:20.613Z,13.2
2023-11-19T13:40:21.048Z,7.4
2023-11-19T13:41:21.762Z,10.2
2023-11-19T13:42:21.540Z,12.4
2023-11-19T13:43:24.164Z,6.9
2023-11-19T13:44:22.701Z,9.9
2023-11-19T13:45:23.223Z,6.9
2023-11-19T13:46:23.433Z,4.4
2023-11-19T13:47:23.843Z,5.9
2023-11-19T13:48:24.050Z,8
2023-11-19T13:49:25.251Z,6.7
2023-11-19T13:50:24.676Z,4.7
2023-11-19T13:51:25.094Z,7.2
2023-11-19T13:52:25.307Z,9.6
2023-11-19T13:53:25.602Z,6.7
2023-11-19T13:54:26.035Z,9.5
2023-11-19T13:55:26.764Z,5
2023-11-19T13:56:26.649Z,5.2
2023-11-19T13:57:26.813Z,4.1
2023-11-19T13:58:27.181Z,4.1
2023-11-19T13:59:27.607Z,4.6
2023-11-19T14:00:27.850Z,6.3
2023-11-19T14:01:28.337Z,4.6
2023-11-19T14:02:28.481Z,6
2023-11-19T14:03:29.149Z,4.3
2023-11-19T14:04:29.382Z,4.3
2023-11-19T14:06:30.075Z,7.6
2023-11-19T14:07:30.414Z,4.2
2023-11-19T14:08:30.617Z,4
2023-11-19T14:09:30.932Z,4.5
2023-11-19T14:10:31.227Z,7.4
2023-11-19T14:11:31.603Z,10.7
2023-11-19T14:12:32.276Z,9.6
2023-11-19T14:13:32.217Z,8
2023-11-19T14:14:32.716Z,9.2
2023-11-19T14:15:33.064Z,6.7
2023-11-19T14:16:33.639Z,6
2023-11-19T14:17:34.242Z,3.5
2023-11-19T14:18:35.017Z,4
2023-11-19T14:19:34.401Z,4.5
2023-11-19T14:20:34.611Z,5.4
2023-11-19T14:21:35.063Z,4.2
2023-11-19T14:22:35.342Z,4.3
2023-11-19T14:23:35.555Z,6
2023-11-19T14:24:36.070Z,7.6
2023-11-19T14:25:36.277Z,6.8
2023-11-19T14:26:36.962Z,5.3
2023-11-19T14:27:41.022Z,7.2
2023-11-19T14:28:55.509Z,7.6
2023-11-19T14:29:43.880Z,14.4
2023-11-19T14:30:43.860Z,39.1
2023-11-19T14:31:44.209Z,26.5
2023-11-19T14:32:44.441Z,22.5
2023-11-19T14:33:44.752Z,13.3
2023-11-19T14:34:45.135Z,9.3
2023-11-19T14:35:45.526Z,12.3
2023-11-19T14:36:45.884Z,16.1
2023-11-19T14:37:46.016Z,17.3
2023-11-19T14:38:46.462Z,14.5
2023-11-19T14:39:48.908Z,16.9
2023-11-19T14:40:48.059Z,17.2
2023-11-19T14:41:47.842Z,19.3
2023-11-19T14:42:48.162Z,15
2023-11-19T14:43:48.378Z,11.1
2023-11-19T14:44:48.620Z,11.5
2023-11-19T14:45:50.570Z,13.7
2023-11-19T14:46:49.500Z,9.5
2023-11-19T14:47:49.702Z,8.4
2023-11-19T14:48:50.094Z,10.6
2023-11-19T14:49:50.602Z,10.6
2023-11-19T14:50:50.612Z,9.1